Time;durP1;ratioP1;P1;durP2;ratioP2;P2;SDS_P1;SDS_P2;PMS_P1;PMS_P2;Temp;Humidity;BMP_temperature;BMP_pressure;BME280_temperature;BME280_humidity;BME280_pressure;Samples;Min_cycle;Max_cycle;Signal;HPM_P1;HPM_P2
2021/07/06 00:00:35;;;;;;;;;6.50;6.50;;;;;30.25;52.86;98330.66;5094665;28;8841;-73
2021/07/06 00:03:03;;;;;;;;;6.25;6.25;;;;;30.26;53.54;98337.63;5092187;28;9011;-75
2021/07/06 00:05:33;;;;;;;;;6.00;6.00;;;;;30.24;52.63;98342.72;5092573;28;8837;-75
2021/07/06 00:08:02;;;;;;;;;7.00;7.00;;;;;30.21;53.15;98350.91;5093041;28;8906;-75
2021/07/06 00:10:31;;;;;;;;;6.00;6.00;;;;;30.18;52.77;98369.59;5093246;28;8833;-76
2021/07/06 00:13:00;;;;;;;;;5.25;5.25;;;;;30.10;53.41;98373.56;5089277;28;8940;-76
2021/07/06 00:15:31;;;;;;;;;4.75;4.75;;;;;29.93;52.99;98374.50;5091574;28;8822;-75
2021/07/06 00:17:59;;;;;;;;;8.00;8.00;;;;;29.89;53.87;98383.91;5093955;28;8891;-77
2021/07/06 00:20:28;;;;;;;;;6.00;6.00;;;;;29.83;53.98;98384.34;5106968;28;8837;-76
2021/07/06 00:23:04;;;;;;;;;7.00;6.50;;;;;29.78;53.09;98387.50;5092706;28;9586;-77
2021/07/06 00:25:32;;;;;;;;;7.25;7.25;;;;;29.69;54.49;98391.88;5094661;28;8948;-76
2021/07/06 00:28:03;;;;;;;;;5.75;5.75;;;;;29.62;54.08;98403.56;5094632;28;8837;-76
2021/07/06 00:30:39;;;;;;;;;7.50;7.50;;;;;29.60;54.03;98411.38;5093191;28;8861;-75
2021/07/06 00:33:11;;;;;;;;;6.50;6.50;;;;;29.58;53.83;98423.81;5091380;28;8845;-77
2021/07/06 00:35:42;;;;;;;;;5.00;5.00;;;;;29.52;54.64;98409.88;5091217;28;8841;-77
2021/07/06 00:38:12;;;;;;;;;3.75;3.75;;;;;29.48;53.75;98415.34;5092371;28;8865;-76
2021/07/06 00:40:41;;;;;;;;;5.00;5.00;;;;;29.41;53.95;98417.31;5088415;28;8897;-76
2021/07/06 00:43:15;;;;;;;;;5.75;5.75;;;;;29.32;54.41;98409.63;5092704;28;8830;-78
2021/07/06 00:45:43;;;;;;;;;6.00;6.00;;;;;29.25;55.15;98415.09;5089038;28;8837;-76
2021/07/06 00:48:18;;;;;;;;;5.67;5.67;;;;;29.19;55.81;98411.25;5057262;28;8830;-75
2021/07/06 00:50:47;;;;;;;;;5.00;5.00;;;;;29.18;55.26;98410.47;5091650;28;8843;-76
2021/07/06 00:53:15;;;;;;;;;5.25;5.25;;;;;29.19;57.72;98401.16;5090751;28;8861;-75
2021/07/06 00:55:45;;;;;;;;;5.25;5.25;;;;;29.20;55.23;98402.72;5090753;28;8837;-76
2021/07/06 00:58:16;;;;;;;;;5.00;5.00;;;;;29.21;55.45;98396.09;5092142;28;8832;-77
2021/07/06 01:00:45;;;;;;;;;3.25;3.25;;;;;29.16;54.38;98388.38;5090800;28;9387;-76
2021/07/06 01:03:14;;;;;;;;;5.25;5.25;;;;;29.27;55.26;98395.69;5093009;28;8825;-76
2021/07/06 01:05:43;;;;;;;;;8.00;7.25;;;;;29.25;54.62;98382.50;5089810;28;8992;-77
2021/07/06 01:08:13;;;;;;;;;6.00;6.00;;;;;29.25;57.26;98384.44;5092575;28;8841;-77
2021/07/06 01:10:42;;;;;;;;;7.25;7.25;;;;;29.19;61.27;98381.38;5092346;28;8871;-77
2021/07/06 01:13:12;;;;;;;;;8.00;8.00;;;;;29.12;62.54;98393.06;5092743;28;8856;-76
2021/07/06 01:15:41;;;;;;;;;6.00;6.00;;;;;29.07;60.78;98398.16;5090537;28;8829;-77
2021/07/06 01:18:15;;;;;;;;;6.25;6.25;;;;;29.06;63.56;98412.91;5093225;28;8848;-76
2021/07/06 01:20:47;;;;;;;;;5.25;5.00;;;;;28.98;63.42;98414.88;5092230;28;8853;-77
2021/07/06 01:23:20;;;;;;;;;15.00;13.25;;;;;28.89;66.29;98409.88;5092624;28;8865;-75
2021/07/06 01:25:51;;;;;;;;;12.00;12.00;;;;;28.87;65.49;98414.94;5090739;28;8879;-74
2021/07/06 01:28:20;;;;;;;;;19.50;19.50;;;;;28.72;62.65;98418.09;5092692;28;8829;-75
2021/07/06 01:30:49;;;;;;;;;17.50;17.50;;;;;28.55;64.24;98422.47;5091842;28;8868;-76
2021/07/06 01:33:30;;;;;;;;;9.25;9.25;;;;;28.43;63.38;98434.53;5091461;28;8829;-73
2021/07/06 01:36:07;;;;;;;;;5.00;5.00;;;;;28.37;58.42;98430.66;5092895;28;8837;-75
2021/07/06 01:38:38;;;;;;;;;9.50;9.50;;;;;28.30;57.68;98425.25;5091084;28;8829;-77
2021/07/06 01:41:09;;;;;;;;;7.75;7.75;;;;;28.37;57.59;98427.94;5091120;28;8845;-75
2021/07/06 01:43:38;;;;;;;;;9.75;9.75;;;;;28.40;57.68;98434.53;5089539;28;8856;-76
2021/07/06 01:46:07;;;;;;;;;7.50;7.00;;;;;28.42;58.77;98440.34;5089638;28;8833;-74
2021/07/06 01:48:36;;;;;;;;;2.25;2.25;;;;;28.45;57.78;98440.31;5088392;28;8984;-76
2021/07/06 01:51:05;;;;;;;;;5.25;5.25;;;;;28.54;57.88;98446.13;5103618;27;8833;-74
2021/07/06 01:53:33;;;;;;;;;3.75;3.75;;;;;28.56;57.64;98451.91;5089439;28;8841;-75
2021/07/06 01:56:02;;;;;;;;;5.00;4.00;;;;;28.58;58.09;98438.72;5091038;28;8846;-76
2021/07/06 01:58:32;;;;;;;;;2.00;2.00;;;;;28.59;57.17;98420.50;5088788;28;8845;-76
2021/07/06 02:01:01;;;;;;;;;1.25;1.25;;;;;28.63;56.96;98431.31;5088882;28;8860;-76
2021/07/06 02:03:32;;;;;;;;;2.00;2.00;;;;;28.63;57.39;98429.38;5088738;28;8968;-75
2021/07/06 02:06:00;;;;;;;;;2.00;2.00;;;;;28.60;57.46;98421.28;5088758;28;8872;-75
2021/07/06 02:08:29;;;;;;;;;2.75;2.75;;;;;28.61;57.74;98420.09;5089132;28;8849;-76
2021/07/06 02:10:59;;;;;;;;;2.00;2.00;;;;;28.60;57.60;98415.84;5089196;28;8915;-76
2021/07/06 02:13:28;;;;;;;;;1.00;1.00;;;;;28.61;58.98;98409.22;5088784;28;8845;-75
2021/07/06 02:15:59;;;;;;;;;2.00;2.00;;;;;28.67;58.29;98408.44;5088972;28;8838;-76
2021/07/06 02:18:28;;;;;;;;;2.00;2.00;;;;;28.75;57.30;98401.78;5090044;28;8841;-76
2021/07/06 02:20:58;;;;;;;;;1.50;1.50;;;;;28.79;56.86;98391.69;5089660;28;8857;-76
2021/07/06 02:23:28;;;;;;;;;1.00;1.00;;;;;28.86;57.29;98391.69;5089393;28;8826;-74
2021/07/06 02:26:03;;;;;;;;;1.00;1.00;;;;;28.89;56.41;98390.88;5089094;28;8894;-74
2021/07/06 02:28:33;;;;;;;;;1.25;1.25;;;;;28.92;57.01;98394.75;5089715;28;8868;-73
2021/07/06 02:31:03;;;;;;;;;1.00;1.00;;;;;28.95;56.30;98390.47;5086758;28;8878;-73
2021/07/06 02:33:33;;;;;;;;;1.25;1.25;;;;;28.94;56.00;98399.78;5105721;28;8932;-74
2021/07/06 02:36:06;;;;;;;;;2.00;2.00;;;;;28.92;56.11;98418.41;5085927;28;8856;-74
2021/07/06 02:38:38;;;;;;;;;1.00;1.00;;;;;28.92;56.17;98430.03;5089306;28;8918;-75
2021/07/06 02:41:07;;;;;;;;;1.25;1.25;;;;;28.89;56.25;98428.13;5088424;28;8845;-72
2021/07/06 02:43:38;;;;;;;;;0.75;0.75;;;;;28.92;58.01;98435.47;5093100;28;8938;-76
2021/07/06 02:46:08;;;;;;;;;2.00;2.00;;;;;28.92;56.68;98440.13;5091718;28;8845;-78
2021/07/06 02:48:38;;;;;;;;;2.00;2.00;;;;;28.91;57.19;98436.66;5092367;28;8875;-77
2021/07/06 02:51:07;;;;;;;;;4.00;4.00;;;;;28.92;56.49;98435.47;5092889;28;8965;-77
2021/07/06 02:53:35;;;;;;;;;2.00;2.00;;;;;28.96;56.40;98440.88;5091033;28;8837;-76
2021/07/06 02:56:04;;;;;;;;;1.00;1.00;;;;;28.97;56.47;98442.44;5090491;28;8837;-76
2021/07/06 02:58:32;;;;;;;;;1.00;1.00;;;;;29.03;56.15;98440.84;5088547;28;8894;-76
2021/07/06 03:01:01;;;;;;;;;1.25;1.25;;;;;29.05;55.79;98443.94;5088342;28;8895;-75
2021/07/06 03:03:33;;;;;;;;;0.75;0.75;;;;;29.08;55.80;98454.78;5093705;28;8859;-76
2021/07/06 03:06:02;;;;;;;;;0.25;0.25;;;;;29.12;55.92;98454.75;5093183;28;8829;-77
2021/07/06 03:08:31;;;;;;;;;0.00;0.00;;;;;29.12;55.33;98447.38;5099064;28;8814;-75
2021/07/06 03:10:59;;;;;;;;;0.75;0.75;;;;;29.14;56.13;98441.56;5093106;28;8841;-77
2021/07/06 03:13:31;;;;;;;;;0.25;0.25;;;;;29.15;56.20;98449.31;5094898;28;8959;-77
2021/07/06 03:16:01;;;;;;;;;0.25;0.25;;;;;29.16;55.36;98433.78;5094356;28;8856;-76
2021/07/06 03:18:30;;;;;;;;;0.00;0.00;;;;;29.21;56.83;98438.78;5091851;28;8841;-75
2021/07/06 03:20:58;;;;;;;;;0.75;0.75;;;;;29.24;57.28;98438.00;5092870;28;8846;-74
2021/07/06 03:23:28;;;;;;;;;0.75;0.75;;;;;29.31;55.68;98434.47;5092374;28;8826;-77
2021/07/06 03:25:57;;;;;;;;;0.00;0.00;;;;;29.39;55.00;98436.72;5092986;28;8902;-78
2021/07/06 03:28:25;;;;;;;;;0.00;0.00;;;;;29.44;55.51;98419.25;5094496;28;8973;-77
2021/07/06 03:30:54;;;;;;;;;0.00;0.00;;;;;29.60;57.06;98424.19;5092125;28;8810;-75
2021/07/06 03:33:23;;;;;;;;;0.75;0.75;;;;;29.67;55.32;98424.91;5092328;28;8844;-75
2021/07/06 03:35:53;;;;;;;;;0.00;0.00;;;;;29.76;55.06;98424.44;5093185;28;8832;-77
2021/07/06 03:38:22;;;;;;;;;0.00;0.00;;;;;29.79;55.45;98432.56;5092557;28;8833;-75
2021/07/06 03:40:51;;;;;;;;;0.00;0.00;;;;;29.82;54.66;98434.47;5094121;28;8830;-77
2021/07/06 03:43:19;;;;;;;;;0.00;0.00;;;;;29.86;54.86;98426.28;5094060;28;8880;-75
2021/07/06 03:45:50;;;;;;;;;0.00;0.00;;;;;29.83;56.99;98425.13;5094213;28;8818;-75
2021/07/06 03:48:20;;;;;;;;;0.00;0.00;;;;;29.87;54.72;98422.38;5094204;28;8852;-76
2021/07/06 03:50:50;;;;;;;;;0.00;0.00;;;;;29.94;54.49;98426.94;5094585;28;8852;-75
2021/07/06 03:53:20;;;;;;;;;0.25;0.25;;;;;29.97;55.46;98420.72;5094320;28;8833;-78
2021/07/06 03:55:49;;;;;;;;;0.00;0.00;;;;;30.08;54.58;98429.56;5094022;28;8826;-74
2021/07/06 03:58:18;;;;;;;;;0.00;0.00;;;;;30.08;55.38;98426.84;5093335;28;8853;-73
2021/07/06 04:00:47;;;;;;;;;0.00;0.00;;;;;30.11;54.66;98426.03;5092433;28;8845;-76
2021/07/06 04:03:18;;;;;;;;;0.00;0.00;;;;;30.09;54.41;98440.03;5093716;28;8861;-76
2021/07/06 04:05:47;;;;;;;;;0.00;0.00;;;;;30.06;54.31;98440.06;5094736;28;8857;-77
2021/07/06 04:08:15;;;;;;;;;0.00;0.00;;;;;29.99;54.89;98434.69;5094758;28;9055;-76
2021/07/06 04:10:49;;;;;;;;;0.75;0.75;;;;;29.83;53.85;98416.22;5757378;22;8822;-76
2021/07/06 04:13:21;;;;;;;;;1.00;1.00;;;;;29.69;53.75;98392.66;5049373;28;9621;-78
2021/07/06 04:15:51;;;;;;;;;0.00;0.00;;;;;29.86;54.53;98408.03;5051947;28;8879;-77
2021/07/06 04:18:20;;;;;;;;;0.00;0.00;;;;;30.00;54.88;98414.47;5052534;28;8840;-76
2021/07/06 04:21:06;;;;;;;;;0.00;0.00;;;;;30.02;54.56;98402.03;5050344;28;8863;-78
2021/07/06 04:23:42;;;;;;;;;0.00;0.00;;;;;30.23;54.97;98417.34;5053159;28;8839;-77
2021/07/06 04:26:34;;;;;;;;;0.00;0.00;;;;;30.30;53.96;98417.28;5052315;28;8793;-78
2021/07/06 04:29:06;;;;;;;;;0.00;0.00;;;;;30.32;54.11;98425.81;5053857;28;8871;-78
2021/07/06 04:31:38;;;;;;;;;0.00;0.00;;;;;30.29;53.87;98404.84;5049339;28;8876;-73
2021/07/06 04:34:08;;;;;;;;;0.00;0.00;;;;;30.30;54.60;98408.34;5051451;28;8809;-77
2021/07/06 04:36:37;;;;;;;;;4.00;4.00;;;;;30.27;55.39;98401.75;5050571;28;8867;-75
2021/07/06 04:39:05;;;;;;;;;0.50;0.50;;;;;30.35;56.13;98403.22;5052960;28;8844;-76
2021/07/06 04:41:34;;;;;;;;;0.00;0.00;;;;;30.45;54.57;98407.00;5053544;28;9546;-75
2021/07/06 04:44:03;;;;;;;;;0.25;0.25;;;;;30.54;55.08;98404.56;5051413;28;9612;-75
2021/07/06 04:46:33;;;;;;;;;0.00;0.00;;;;;30.59;56.62;98389.75;5052018;28;8837;-78
2021/07/06 04:49:01;;;;;;;;;0.00;0.00;;;;;30.72;56.85;98394.22;5053221;28;8836;-76
2021/07/06 04:51:31;;;;;;;;;1.00;1.00;;;;;30.86;54.82;98393.28;5050660;28;8829;-74
2021/07/06 04:54:00;;;;;;;;;0.80;0.00;;;;;31.01;53.88;98404.72;5051068;28;9647;-75
2021/07/06 04:56:31;;;;;;;;;1.00;1.00;;;;;31.08;53.84;98394.50;5050015;28;8852;-75
2021/07/06 04:59:03;;;;;;;;;0.00;0.00;;;;;31.21;53.56;98394.69;5052137;28;8871;-76
2021/07/06 05:01:33;;;;;;;;;1.00;1.00;;;;;31.35;52.99;98399.94;5051520;28;8863;-74
2021/07/06 05:04:02;;;;;;;;;0.00;0.00;;;;;31.44;53.37;98407.56;5053752;28;8868;-73
2021/07/06 05:06:34;;;;;;;;;0.00;0.00;;;;;31.55;54.16;98405.44;5050820;28;8820;-73
2021/07/06 05:09:03;;;;;;;;;0.00;0.00;;;;;31.54;53.72;98390.28;5053294;28;8848;-74
2021/07/06 05:11:31;;;;;;;;;0.00;0.00;;;;;31.64;54.01;98391.28;5052497;28;8868;-74
2021/07/06 05:14:01;;;;;;;;;0.00;0.00;;;;;31.69;53.04;98388.88;5051521;28;8852;-76
2021/07/06 05:16:31;;;;;;;;;0.00;0.00;;;;;31.79;52.84;98381.69;5051650;28;8891;-76
2021/07/06 05:19:00;;;;;;;;;0.00;0.00;;;;;31.83;53.35;98385.13;5052438;28;8840;-77
2021/07/06 05:21:31;;;;;;;;;0.00;0.00;;;;;31.81;52.46;98368.41;5052622;28;8848;-77
2021/07/06 05:24:09;;;;;;;;;0.00;0.00;;;;;31.93;51.95;98375.97;5049500;28;8820;-76
2021/07/06 05:26:40;;;;;;;;;1.00;1.00;;;;;31.94;52.13;98365.84;5049529;28;8840;-77
2021/07/06 05:29:11;;;;;;;;;1.00;1.00;;;;;31.98;51.52;98358.34;5050149;28;8844;-76
2021/07/06 05:31:40;;;;;;;;;0.00;0.00;;;;;32.08;51.89;98360.09;5065077;28;8877;-75
2021/07/06 05:34:11;;;;;;;;;0.80;0.80;;;;;32.15;52.10;98365.44;5063289;28;8852;-75
2021/07/06 05:36:40;;;;;;;;;0.60;0.60;;;;;32.18;52.45;98356.41;5048900;28;8836;-75
2021/07/06 05:39:09;;;;;;;;;0.00;0.00;;;;;32.22;52.32;98346.19;5054529;28;8929;-75
2021/07/06 05:41:38;;;;;;;;;0.80;0.80;;;;;32.32;52.30;98334.31;5050782;28;8911;-76
2021/07/06 05:44:10;;;;;;;;;0.00;0.00;;;;;32.42;52.39;98338.00;5053854;28;8849;-74
2021/07/06 05:46:40;;;;;;;;;0.60;0.60;;;;;32.50;51.93;98333.91;5054852;28;9672;-75
2021/07/06 05:49:11;;;;;;;;;0.00;0.00;;;;;32.60;51.62;98321.19;5050805;28;8859;-75
2021/07/06 05:51:41;;;;;;;;;3.60;3.60;;;;;32.78;51.88;98323.56;5048370;28;8852;-76
2021/07/06 05:54:10;;;;;;;;;1.00;1.00;;;;;32.90;51.70;98315.47;5057804;28;8844;-75
2021/07/06 05:56:38;;;;;;;;;0.00;0.00;;;;;33.07;51.15;98317.00;5058398;28;8849;-75
2021/07/06 05:59:07;;;;;;;;;0.00;0.00;;;;;33.19;50.69;98312.03;5054357;28;8899;-75
2021/07/06 06:01:36;;;;;;;;;0.00;0.00;;;;;33.29;50.66;98297.34;5050834;28;9427;-75
2021/07/06 06:04:05;;;;;;;;;0.40;0.40;;;;;33.46;50.19;98287.16;5053257;28;8850;-74
2021/07/06 06:06:33;;;;;;;;;2.80;2.80;;;;;33.57;49.63;98282.19;5052677;28;9538;-73
2021/07/06 06:09:03;;;;;;;;;1.00;1.00;;;;;33.67;49.74;98284.63;5049219;28;8933;-77
2021/07/06 06:11:41;;;;;;;;;1.00;1.00;;;;;33.74;49.00;98280.16;5061520;28;8952;-78
2021/07/06 06:14:19;;;;;;;;;1.00;1.00;;;;;33.80;49.30;98279.22;5065190;28;8975;-77
2021/07/06 06:16:49;;;;;;;;;0.00;0.00;;;;;33.88;48.46;98266.84;5081541;28;8829;-77
2021/07/06 06:19:18;;;;;;;;;0.80;0.80;;;;;33.98;49.79;98260.31;5061178;28;8841;-76
2021/07/06 06:21:49;;;;;;;;;0.20;0.20;;;;;33.98;49.50;98243.88;5078446;28;8858;-76
2021/07/06 06:24:19;;;;;;;;;1.00;1.00;;;;;33.95;49.08;98228.31;5071786;28;8845;-77
2021/07/06 06:26:49;;;;;;;;;2.00;2.00;;;;;33.93;49.15;98228.00;5079575;28;8830;-76
2021/07/06 06:29:19;;;;;;;;;0.00;0.00;;;;;33.87;49.39;98220.75;5053073;28;8891;-76
2021/07/06 06:31:47;;;;;;;;;1.00;1.00;;;;;33.80;49.62;98208.09;5076662;28;8854;-77
2021/07/06 06:34:16;;;;;;;;;0.80;0.80;;;;;33.77;49.86;98200.72;5077567;28;9958;-77
2021/07/06 06:36:44;;;;;;;;;1.00;1.00;;;;;33.70;49.99;98196.22;5077155;28;8834;-77
2021/07/06 06:39:13;;;;;;;;;1.60;1.60;;;;;33.66;50.34;98187.34;5070941;28;8849;-76
2021/07/06 06:41:42;;;;;;;;;1.00;1.00;;;;;33.66;50.14;98181.13;5071717;28;8907;-76
2021/07/06 06:44:10;;;;;;;;;1.20;1.20;;;;;33.74;50.16;98181.69;5071103;28;8834;-77
2021/07/06 06:46:39;;;;;;;;;2.00;2.00;;;;;33.79;49.36;98181.13;5070683;28;8837;-76
2021/07/06 06:49:08;;;;;;;;;1.80;1.80;;;;;33.81;48.92;98176.00;5052599;28;8844;-76
2021/07/06 06:51:37;;;;;;;;;1.40;1.40;;;;;33.88;49.82;98173.81;5051950;28;8846;-75
2021/07/06 06:54:06;;;;;;;;;1.60;1.60;;;;;33.97;49.12;98171.19;5070334;28;9590;-76
2021/07/06 06:56:36;;;;;;;;;2.60;2.60;;;;;34.06;49.79;98173.28;5069970;28;8931;-76
2021/07/06 06:59:06;;;;;;;;;2.00;2.00;;;;;34.10;49.48;98162.97;5069796;28;8822;-78
2021/07/06 07:01:37;;;;;;;;;0.80;0.80;;;;;34.11;49.19;98166.50;5070068;28;8842;-78
2021/07/06 07:04:06;;;;;;;;;2.60;2.60;;;;;34.01;49.13;98160.91;5070463;28;8846;-76
2021/07/06 07:06:35;;;;;;;;;2.00;2.00;;;;;34.01;49.57;98165.63;5070262;28;8934;-77
2021/07/06 07:09:07;;;;;;;;;2.60;2.60;;;;;34.01;49.67;98160.13;5069887;28;8838;-78
2021/07/06 07:11:37;;;;;;;;;2.20;2.20;;;;;34.01;49.50;98157.41;5069985;28;8841;-76
2021/07/06 07:14:05;;;;;;;;;1.00;1.00;;;;;33.99;49.41;98137.91;5069727;28;8858;-76
2021/07/06 07:16:34;;;;;;;;;1.00;1.00;;;;;34.08;49.39;98137.25;5070140;28;8920;-77
2021/07/06 07:19:03;;;;;;;;;2.00;2.00;;;;;34.16;49.45;98133.09;5070045;28;8842;-74
2021/07/06 07:21:31;;;;;;;;;1.60;1.60;;;;;34.23;49.36;98124.66;5070495;28;8924;-75
2021/07/06 07:24:00;;;;;;;;;1.60;1.60;;;;;34.14;49.71;98102.66;5068238;28;8839;-76
2021/07/06 07:26:29;;;;;;;;;1.80;1.80;;;;;34.19;48.98;98111.06;5070805;28;8834;-75
2021/07/06 07:28:58;;;;;;;;;1.00;1.00;;;;;34.19;49.40;98107.56;5070911;28;8846;-75
2021/07/06 07:31:27;;;;;;;;;1.60;1.60;;;;;34.12;49.29;98100.34;5071468;28;8873;-75
2021/07/06 07:33:56;;;;;;;;;0.80;0.80;;;;;34.01;49.35;98095.22;5071524;28;9569;-75
2021/07/06 07:36:26;;;;;;;;;1.00;1.00;;;;;33.87;49.57;98089.44;5071621;28;8838;-75
2021/07/06 07:38:56;;;;;;;;;1.40;1.40;;;;;33.74;49.40;98094.13;5070812;28;8914;-75
2021/07/06 07:41:24;;;;;;;;;0.60;0.60;;;;;33.63;49.74;98087.03;5071040;28;8919;-75
2021/07/06 07:43:54;;;;;;;;;1.40;1.40;;;;;33.57;49.78;98088.00;5070953;28;8850;-75
2021/07/06 07:46:25;;;;;;;;;1.80;1.80;;;;;33.46;49.76;98088.31;5071228;28;8837;-76
2021/07/06 07:48:54;;;;;;;;;1.80;1.80;;;;;33.43;50.28;98080.22;5072928;28;8881;-76
2021/07/06 07:51:24;;;;;;;;;2.00;2.00;;;;;33.36;50.24;98062.06;5073338;28;8857;-75
2021/07/06 07:53:53;;;;;;;;;1.20;1.20;;;;;33.43;50.55;98067.31;5075866;28;8824;-76
2021/07/06 07:56:46;;;;;;;;;2.20;2.20;;;;;33.50;50.46;98063.59;5083877;28;8827;-74
2021/07/06 07:59:14;;;;;;;;;0.80;0.80;;;;;33.51;50.24;98068.63;5081829;28;8845;-77
2021/07/06 08:01:43;;;;;;;;;2.40;2.40;;;;;33.50;49.99;98066.34;5083584;28;8908;-75
2021/07/06 08:04:12;;;;;;;;;1.80;1.80;;;;;33.48;49.86;98061.31;5080068;28;8851;-76
2021/07/06 08:06:41;;;;;;;;;1.60;1.60;;;;;33.45;50.19;98056.72;5085072;28;8844;-81
2021/07/06 08:09:09;;;;;;;;;2.40;2.40;;;;;33.58;50.08;98056.72;5083405;28;8852;-77
2021/07/06 08:11:40;;;;;;;;;2.20;2.20;;;;;33.65;49.75;98061.97;5084008;28;8850;-77
2021/07/06 08:14:09;;;;;;;;;3.00;3.00;;;;;33.70;49.98;98055.94;5085295;28;8832;-78
2021/07/06 08:16:38;;;;;;;;;1.00;1.00;;;;;33.78;49.87;98048.28;5081955;28;8946;-77
2021/07/06 08:19:09;;;;;;;;;1.00;1.00;;;;;33.83;49.80;98050.47;5074126;28;8831;-76
2021/07/06 08:21:39;;;;;;;;;1.80;1.80;;;;;33.86;49.63;98044.13;5079326;28;8841;-77
2021/07/06 08:24:08;;;;;;;;;2.00;2.00;;;;;33.86;49.44;98053.09;5074250;28;8865;-78
2021/07/06 08:26:36;;;;;;;;;2.60;2.60;;;;;33.83;49.83;98048.50;5074182;28;8829;-77
2021/07/06 08:29:06;;;;;;;;;3.80;3.80;;;;;33.87;49.54;98051.91;5072093;28;8830;-76
2021/07/06 08:31:34;;;;;;;;;2.80;2.80;;;;;33.80;49.52;98030.25;5080739;28;8839;-79
2021/07/06 08:34:04;;;;;;;;;2.20;2.20;;;;;33.90;49.64;98042.03;5083591;28;8845;-79
2021/07/06 08:36:32;;;;;;;;;2.00;2.00;;;;;33.90;49.51;98044.78;5085615;28;8935;-79
2021/07/06 08:39:05;;;;;;;;;3.20;3.20;;;;;33.91;49.54;98035.38;5082514;28;8842;-77
2021/07/06 08:41:57;;;;;;;;;3.00;3.00;;;;;33.95;49.41;98017.63;5084002;28;8800;-77
2021/07/06 08:44:50;;;;;;;;;2.60;2.60;;;;;33.99;49.13;98020.25;5083008;28;9506;-80
2021/07/06 08:47:45;;;;;;;;;2.20;2.20;;;;;33.95;49.43;98022.34;5080380;28;8766;-78
2021/07/06 08:50:14;;;;;;;;;2.00;2.00;;;;;33.83;49.59;98026.63;5082630;28;9902;-78
2021/07/06 08:52:45;;;;;;;;;2.80;2.80;;;;;33.75;49.53;98027.28;5083951;28;9556;-79
2021/07/06 08:55:17;;;;;;;;;3.00;3.00;;;;;33.72;49.42;98023.44;5064308;28;8833;-79
2021/07/06 08:57:47;;;;;;;;;2.40;2.40;;;;;33.74;49.68;98012.84;5073468;28;8818;-79
2021/07/06 09:00:18;;;;;;;;;2.40;2.40;;;;;33.75;49.69;98019.06;5070365;28;8830;-79
2021/07/06 09:03:00;;;;;;;;;4.00;4.00;;;;;33.77;49.49;98025.63;5073376;28;8881;-78
2021/07/06 09:05:30;;;;;;;;;5.00;5.00;;;;;33.82;49.85;98022.34;5074534;28;8887;-80
2021/07/06 09:08:00;;;;;;;;;3.60;3.60;;;;;33.89;49.67;98015.88;5076380;28;8826;-77
2021/07/06 09:10:40;;;;;;;;;2.80;2.80;;;;;33.85;49.78;98016.00;5071441;28;8874;-77
2021/07/06 09:13:28;;;;;;;;;5.20;5.20;;;;;33.92;49.33;98017.75;5071355;28;8935;-77
2021/07/06 09:15:58;;;;;;;;;4.80;4.80;;;;;33.92;49.65;98006.78;5080616;28;8866;-78
2021/07/06 09:18:32;;;;;;;;;5.60;5.60;;;;;33.92;49.09;98004.06;5085537;28;9596;-77
2021/07/06 09:21:12;;;;;;;;;5.60;5.60;;;;;33.91;49.58;98005.25;5073455;28;8907;-78
2021/07/06 09:23:44;;;;;;;;;3.60;3.60;;;;;33.94;49.52;98015.31;5073774;28;8853;-79
2021/07/06 09:26:26;;;;;;;;;4.40;4.40;;;;;33.91;49.30;98021.69;5086319;28;9667;-79
2021/07/06 09:28:57;;;;;;;;;4.80;4.80;;;;;33.92;49.36;98026.72;5077120;28;8810;-79
2021/07/06 09:31:34;;;;;;;;;4.40;4.40;;;;;33.95;49.19;98031.31;5072706;28;8973;-80
2021/07/06 09:34:14;;;;;;;;;4.20;4.20;;;;;33.94;49.85;98029.00;5071930;28;8842;-77
2021/07/06 09:36:51;;;;;;;;;5.80;5.80;;;;;33.87;49.17;98013.59;5072740;28;8897;-79
2021/07/06 09:39:26;;;;;;;;;4.00;4.00;;;;;33.88;49.25;98022.56;5072332;28;8853;-77
2021/07/06 09:42:12;;;;;;;;;5.40;5.40;;;;;33.79;49.43;98025.19;5056079;28;8830;-76
2021/07/06 09:44:42;;;;;;;;;6.20;6.20;;;;;33.80;49.48;98029.47;5081952;28;8879;-75
2021/07/06 09:47:15;;;;;;;;;5.00;5.00;;;;;33.80;49.58;98022.06;5073002;28;8857;-76
2021/07/06 09:49:55;;;;;;;;;5.60;5.60;;;;;33.86;49.29;98027.72;5072080;28;8858;-76
2021/07/06 09:52:24;;;;;;;;;5.80;5.80;;;;;33.92;49.09;98036.88;5071755;28;8865;-75
2021/07/06 09:54:54;;;;;;;;;4.40;4.40;;;;;33.97;48.87;98022.66;5053271;28;8837;-75
2021/07/06 09:57:26;;;;;;;;;6.00;6.00;;;;;34.07;49.21;98028.97;5076858;28;8833;-76
2021/07/06 10:00:03;;;;;;;;;4.40;4.40;;;;;34.13;48.98;98033.47;5071692;28;8838;-73
2021/07/06 10:02:33;;;;;;;;;4.40;4.40;;;;;34.12;48.32;98026.44;5071235;28;8838;-74
2021/07/06 10:05:08;;;;;;;;;4.60;4.60;;;;;34.29;48.99;98038.00;5092583;28;9564;-74
2021/07/06 10:07:39;;;;;;;;;3.40;3.40;;;;;34.37;48.88;98033.09;5091163;28;8847;-74
2021/07/06 10:10:10;;;;;;;;;4.40;4.40;;;;;34.39;48.25;98038.91;5092768;28;8840;-74
2021/07/06 10:12:42;;;;;;;;;4.00;4.00;;;;;34.42;48.57;98038.78;5091002;28;8871;-74
2021/07/06 10:15:13;;;;;;;;;5.80;5.80;;;;;34.45;48.37;98050.81;5092462;28;8839;-74
2021/07/06 10:17:47;;;;;;;;;4.00;4.00;;;;;34.45;48.16;98059.78;5092344;28;8835;-74
2021/07/06 10:20:22;;;;;;;;;4.20;4.20;;;;;34.41;47.92;98059.16;5092446;28;8910;-74
2021/07/06 10:22:52;;;;;;;;;4.00;4.00;;;;;34.36;48.28;98073.41;5092452;28;8835;-74
2021/07/06 10:25:31;;;;;;;;;4.00;4.00;;;;;34.32;47.97;98080.97;5074798;28;8870;-74
2021/07/06 10:28:02;;;;;;;;;4.20;4.20;;;;;34.23;48.23;98087.09;5092806;28;8827;-74
2021/07/06 10:30:44;;;;;;;;;5.00;5.00;;;;;34.20;47.74;98101.66;5092399;28;8877;-74
2021/07/06 10:33:16;;;;;;;;;5.80;5.80;;;;;34.15;48.37;98096.75;5092457;28;8832;-74
2021/07/06 10:35:47;;;;;;;;;4.20;4.20;;;;;34.12;48.51;98096.84;5092373;28;8844;-74
2021/07/06 10:38:40;;;;;;;;;4.00;4.00;;;;;34.10;48.61;98100.03;5092587;28;8892;-74
2021/07/06 10:41:18;;;;;;;;;6.40;6.40;;;;;34.07;48.37;98095.44;5092567;28;8883;-74
2021/07/06 10:43:46;;;;;;;;;4.60;4.60;;;;;34.05;48.53;98103.31;5092344;28;8827;-74
2021/07/06 10:46:21;;;;;;;;;5.80;5.80;;;;;34.02;48.53;98102.22;5092268;28;8866;-74
2021/07/06 10:49:16;;;;;;;;;5.80;5.80;;;;;33.99;49.09;98103.09;5092250;28;8916;-74
2021/07/06 10:51:45;;;;;;;;;6.40;6.40;;;;;33.95;49.37;98110.66;5074471;28;8850;-74
2021/07/06 10:54:23;;;;;;;;;4.20;4.20;;;;;33.92;48.88;98127.19;5092141;28;8840;-74
2021/07/06 10:56:58;;;;;;;;;5.60;5.60;;;;;33.83;48.87;98133.31;5092168;28;8827;-74
2021/07/06 10:59:36;;;;;;;;;6.80;6.80;;;;;33.76;49.20;98139.00;5092093;28;8863;-74
2021/07/06 11:02:23;;;;;;;;;6.60;6.60;;;;;33.69;49.30;98139.97;5092021;28;8843;-73
2021/07/06 11:04:55;;;;;;;;;5.00;5.00;;;;;33.64;48.95;98146.00;5092067;28;8835;-74
2021/07/06 11:07:48;;;;;;;;;5.80;5.80;;;;;33.60;48.99;98150.81;5074364;28;8836;-73
2021/07/06 11:10:19;;;;;;;;;5.80;5.80;;;;;33.58;49.11;98155.94;5074322;28;8831;-74
2021/07/06 11:12:49;;;;;;;;;5.00;5.00;;;;;33.57;48.89;98162.59;5091833;28;8854;-74
2021/07/06 11:15:26;;;;;;;;;4.80;4.80;;;;;33.56;49.24;98161.06;5091974;28;8959;-74
2021/07/06 11:18:10;;;;;;;;;3.80;3.80;;;;;33.53;49.30;98151.00;5092107;28;8835;-74
2021/07/06 11:20:47;;;;;;;;;5.20;5.20;;;;;33.45;49.32;98148.91;5091950;28;8851;-73
2021/07/06 11:23:36;;;;;;;;;6.80;6.80;;;;;33.43;49.29;98151.31;5092643;28;8836;-73
2021/07/06 11:26:07;;;;;;;;;5.20;5.20;;;;;33.41;49.59;98151.75;5095919;28;8828;-73
2021/07/06 11:28:49;;;;;;;;;5.00;5.00;;;;;33.36;50.07;98153.03;5095955;28;8928;-74
2021/07/06 11:31:20;;;;;;;;;5.40;5.40;;;;;33.31;49.59;98164.50;5095863;28;8893;-73
2021/07/06 11:33:49;;;;;;;;;6.40;6.40;;;;;33.31;49.57;98163.75;5095843;28;8847;-74
2021/07/06 11:36:25;;;;;;;;;7.00;7.00;;;;;33.28;49.55;98170.03;5095795;28;8836;-73
2021/07/06 11:38:55;;;;;;;;;4.80;4.80;;;;;33.27;49.22;98173.97;5095610;28;9583;-74
2021/07/06 11:41:26;;;;;;;;;7.00;7.00;;;;;33.25;49.63;98182.63;5095828;28;8854;-74
2021/07/06 11:43:56;;;;;;;;;5.60;5.60;;;;;33.22;49.69;98180.75;5095887;28;8904;-73
2021/07/06 11:46:26;;;;;;;;;6.60;6.20;;;;;33.26;50.06;98194.31;5077759;28;8916;-74
2021/07/06 11:48:54;;;;;;;;;4.60;4.60;;;;;33.30;49.51;98198.50;5095778;28;8861;-74
2021/07/06 11:51:25;;;;;;;;;5.00;5.00;;;;;33.34;48.70;98214.81;5095471;28;9630;-74
2021/07/06 11:54:00;;;;;;;;;3.20;3.20;;;;;33.36;48.34;98234.28;5095496;28;8856;-74
2021/07/06 11:56:32;;;;;;;;;1.80;1.80;;;;;33.32;47.89;98231.66;5095732;28;8855;-74
2021/07/06 11:59:01;;;;;;;;;3.80;3.80;;;;;33.33;48.10;98244.13;5095323;28;8851;-74
2021/07/06 12:01:29;;;;;;;;;2.80;2.80;;;;;33.30;48.21;98252.41;5095493;28;8936;-74